sensor_id;sensor_type;location;lat;lon;timestamp;pressure;altitude;pressure_sealevel;temperature;humidity
48364;BME280;34170;54.364;18.582;2023-01-31T00:01:42;98752.53;;;1.76;100.00
48364;BME280;34170;54.364;18.582;2023-01-31T00:04:10;98764.59;;;1.69;100.00
48364;BME280;34170;54.364;18.582;2023-01-31T00:06:41;98755.53;;;1.71;100.00
48364;BME280;34170;54.364;18.582;2023-01-31T00:09:11;98758.94;;;1.74;100.00
48364;BME280;34170;54.364;18.582;2023-01-31T00:11:39;98755.81;;;1.68;100.00
48364;BME280;34170;54.364;18.582;2023-01-31T00:14:07;98755.09;;;1.66;100.00
48364;BME280;34170;54.364;18.582;2023-01-31T00:16:36;98758.59;;;1.67;100.00
48364;BME280;34170;54.364;18.582;2023-01-31T00:19:04;98755.06;;;1.78;100.00
48364;BME280;34170;54.364;18.582;2023-01-31T00:21:32;98770.78;;;1.58;100.00
48364;BME280;34170;54.364;18.582;2023-01-31T00:24:00;98773.66;;;1.55;100.00
48364;BME280;34170;54.364;18.582;2023-01-31T00:26:29;98765.72;;;1.55;100.00
48364;BME280;34170;54.364;18.582;2023-01-31T00:28:59;98773.66;;;1.55;100.00
48364;BME280;34170;54.364;18.582;2023-01-31T00:31:29;98785.09;;;1.67;100.00
48364;BME280;34170;54.364;18.582;2023-01-31T00:33:57;98788.72;;;1.55;100.00
48364;BME280;34170;54.364;18.582;2023-01-31T00:36:28;98775.31;;;1.67;100.00
48364;BME280;34170;54.364;18.582;2023-01-31T00:38:57;98783.22;;;1.79;100.00
48364;BME280;34170;54.364;18.582;2023-01-31T00:41:26;98776.03;;;1.69;100.00
48364;BME280;34170;54.364;18.582;2023-01-31T00:43:55;98780.78;;;1.55;100.00
48364;BME280;34170;54.364;18.582;2023-01-31T00:46:22;98794.16;;;1.53;100.00
48364;BME280;34170;54.364;18.582;2023-01-31T00:48:51;98788.25;;;1.49;100.00
48364;BME280;34170;54.364;18.582;2023-01-31T00:51:19;98793.41;;;1.62;100.00
48364;BME280;34170;54.364;18.582;2023-01-31T00:53:48;98804.59;;;1.66;100.00
48364;BME280;34170;54.364;18.582;2023-01-31T00:56:20;98809.88;;;1.66;100.00
48364;BME280;34170;54.364;18.582;2023-01-31T00:58:50;98807.28;;;1.55;100.00
48364;BME280;34170;54.364;18.582;2023-01-31T01:01:24;98805.78;;;1.73;100.00
48364;BME280;34170;54.364;18.582;2023-01-31T01:03:56;98810.00;;;1.76;100.00
48364;BME280;34170;54.364;18.582;2023-01-31T01:06:24;98814.84;;;1.70;100.00
48364;BME280;34170;54.364;18.582;2023-01-31T01:08:52;98826.16;;;1.73;100.00
48364;BME280;34170;54.364;18.582;2023-01-31T01:11:22;98817.38;;;1.61;100.00
48364;BME280;34170;54.364;18.582;2023-01-31T01:13:51;98819.91;;;1.62;100.00
48364;BME280;34170;54.364;18.582;2023-01-31T01:16:23;98819.03;;;1.73;100.00
48364;BME280;34170;54.364;18.582;2023-01-31T01:18:51;98831.53;;;1.82;100.00
48364;BME280;34170;54.364;18.582;2023-01-31T01:21:27;98828.78;;;1.73;100.00
48364;BME280;34170;54.364;18.582;2023-01-31T01:23:58;98823.03;;;1.67;100.00
48364;BME280;34170;54.364;18.582;2023-01-31T01:26:28;98832.91;;;1.65;100.00
48364;BME280;34170;54.364;18.582;2023-01-31T01:28:58;98834.13;;;1.50;100.00
48364;BME280;34170;54.364;18.582;2023-01-31T01:31:27;98852.09;;;1.58;100.00
48364;BME280;34170;54.364;18.582;2023-01-31T01:34:00;98859.88;;;1.70;100.00
48364;BME280;34170;54.364;18.582;2023-01-31T01:36:30;98853.41;;;1.63;100.00
48364;BME280;34170;54.364;18.582;2023-01-31T01:38:58;98860.03;;;1.58;100.00
48364;BME280;34170;54.364;18.582;2023-01-31T01:41:25;98871.22;;;1.61;100.00
48364;BME280;34170;54.364;18.582;2023-01-31T01:43:57;98871.94;;;1.63;100.00
48364;BME280;34170;54.364;18.582;2023-01-31T01:46:38;98877.38;;;1.62;100.00
48364;BME280;34170;54.364;18.582;2023-01-31T01:49:25;98882.75;;;1.71;100.00
48364;BME280;34170;54.364;18.582;2023-01-31T01:51:57;98880.38;;;1.68;100.00
48364;BME280;34170;54.364;18.582;2023-01-31T01:54:55;98893.88;;;1.65;100.00
48364;BME280;34170;54.364;18.582;2023-01-31T01:57:30;98901.25;;;1.50;100.00
48364;BME280;34170;54.364;18.582;2023-01-31T02:00:23;98889.69;;;1.40;100.00
48364;BME280;34170;54.364;18.582;2023-01-31T02:02:56;98892.22;;;1.42;100.00
48364;BME280;34170;54.364;18.582;2023-01-31T02:05:30;98901.81;;;1.43;100.00
48364;BME280;34170;54.364;18.582;2023-01-31T02:07:58;98894.00;;;1.30;100.00
48364;BME280;34170;54.364;18.582;2023-01-31T02:10:35;98889.06;;;1.37;100.00
48364;BME280;34170;54.364;18.582;2023-01-31T02:13:06;98905.94;;;1.47;100.00
48364;BME280;34170;54.364;18.582;2023-01-31T02:15:34;98904.72;;;1.40;100.00
48364;BME280;34170;54.364;18.582;2023-01-31T02:18:02;98903.75;;;1.41;100.00
48364;BME280;34170;54.364;18.582;2023-01-31T02:34:36;98945.53;;;1.26;100.00
48364;BME280;34170;54.364;18.582;2023-01-31T02:40:00;98956.50;;;1.44;100.00
48364;BME280;34170;54.364;18.582;2023-01-31T02:42:42;98958.94;;;1.47;100.00
48364;BME280;34170;54.364;18.582;2023-01-31T02:48:04;98970.47;;;1.35;100.00
48364;BME280;34170;54.364;18.582;2023-01-31T02:50:50;98962.03;;;1.29;100.00
48364;BME280;34170;54.364;18.582;2023-01-31T02:53:31;98973.34;;;1.43;100.00
48364;BME280;34170;54.364;18.582;2023-01-31T02:56:05;98976.97;;;1.42;100.00
48364;BME280;34170;54.364;18.582;2023-01-31T02:58:55;98981.56;;;1.51;100.00
48364;BME280;34170;54.364;18.582;2023-01-31T03:01:28;98993.81;;;1.41;100.00
48364;BME280;34170;54.364;18.582;2023-01-31T03:03:58;98994.91;;;1.49;100.00
48364;BME280;34170;54.364;18.582;2023-01-31T03:09:03;99011.75;;;1.37;100.00
48364;BME280;34170;54.364;18.582;2023-01-31T03:12:20;99011.53;;;1.40;100.00
48364;BME280;34170;54.364;18.582;2023-01-31T03:23:38;99040.97;;;1.13;100.00
48364;BME280;34170;54.364;18.582;2023-01-31T03:26:08;99042.75;;;1.12;100.00
48364;BME280;34170;54.364;18.582;2023-01-31T03:28:37;99036.63;;;1.12;100.00
48364;BME280;34170;54.364;18.582;2023-01-31T03:31:21;99036.22;;;0.94;100.00
48364;BME280;34170;54.364;18.582;2023-01-31T03:33:57;99040.47;;;1.08;100.00
48364;BME280;34170;54.364;18.582;2023-01-31T03:36:32;99049.72;;;1.02;100.00
48364;BME280;34170;54.364;18.582;2023-01-31T03:42:16;99047.84;;;1.16;100.00
48364;BME280;34170;54.364;18.582;2023-01-31T03:45:04;99057.53;;;1.04;100.00
48364;BME280;34170;54.364;18.582;2023-01-31T03:47:53;99063.09;;;1.12;100.00
48364;BME280;34170;54.364;18.582;2023-01-31T03:50:28;99059.84;;;1.08;100.00
48364;BME280;34170;54.364;18.582;2023-01-31T03:53:05;99056.09;;;1.00;100.00
48364;BME280;34170;54.364;18.582;2023-01-31T03:55:38;99069.53;;;1.21;100.00
48364;BME280;34170;54.364;18.582;2023-01-31T03:58:10;99068.69;;;1.20;100.00
48364;BME280;34170;54.364;18.582;2023-01-31T04:00:42;99073.13;;;1.20;100.00
48364;BME280;34170;54.364;18.582;2023-01-31T04:03:38;99061.47;;;1.33;100.00
48364;BME280;34170;54.364;18.582;2023-01-31T04:06:08;99056.91;;;1.00;100.00
48364;BME280;34170;54.364;18.582;2023-01-31T04:08:37;99065.97;;;1.09;100.00
48364;BME280;34170;54.364;18.582;2023-01-31T04:11:11;99072.88;;;0.87;100.00
48364;BME280;34170;54.364;18.582;2023-01-31T04:13:41;99071.75;;;1.03;100.00
48364;BME280;34170;54.364;18.582;2023-01-31T04:16:08;99071.47;;;0.94;100.00
48364;BME280;34170;54.364;18.582;2023-01-31T04:18:36;99081.69;;;0.88;100.00
48364;BME280;34170;54.364;18.582;2023-01-31T04:21:04;99085.16;;;0.88;100.00
48364;BME280;34170;54.364;18.582;2023-01-31T04:23:32;99079.75;;;0.90;100.00
48364;BME280;34170;54.364;18.582;2023-01-31T04:25:59;99088.56;;;1.02;100.00
48364;BME280;34170;54.364;18.582;2023-01-31T04:28:27;99084.97;;;1.03;100.00
48364;BME280;34170;54.364;18.582;2023-01-31T04:30:55;99090.00;;;0.94;100.00
48364;BME280;34170;54.364;18.582;2023-01-31T04:33:23;99087.81;;;0.88;100.00
48364;BME280;34170;54.364;18.582;2023-01-31T04:35:51;99096.69;;;1.11;100.00
48364;BME280;34170;54.364;18.582;2023-01-31T04:38:18;99099.88;;;1.04;100.00
48364;BME280;34170;54.364;18.582;2023-01-31T04:40:45;99103.41;;;1.04;100.00
48364;BME280;34170;54.364;18.582;2023-01-31T04:43:13;99097.38;;;1.02;100.00
48364;BME280;34170;54.364;18.582;2023-01-31T04:45:40;99112.81;;;1.08;100.00
48364;BME280;34170;54.364;18.582;2023-01-31T04:48:08;99100.25;;;0.99;100.00
48364;BME280;34170;54.364;18.582;2023-01-31T04:50:36;99100.13;;;1.01;100.00
48364;BME280;34170;54.364;18.582;2023-01-31T04:53:03;99112.06;;;1.06;100.00
48364;BME280;34170;54.364;18.582;2023-01-31T04:55:30;99111.91;;;0.97;100.00
48364;BME280;34170;54.364;18.582;2023-01-31T04:57:59;99094.16;;;1.10;100.00
48364;BME280;34170;54.364;18.582;2023-01-31T05:00:26;99107.91;;;1.15;100.00
48364;BME280;34170;54.364;18.582;2023-01-31T05:02:54;99107.56;;;0.95;100.00
48364;BME280;34170;54.364;18.582;2023-01-31T05:05:21;99108.59;;;1.06;100.00
48364;BME280;34170;54.364;18.582;2023-01-31T05:07:49;99104.03;;;1.08;100.00
48364;BME280;34170;54.364;18.582;2023-01-31T05:10:16;99113.88;;;1.06;100.00
48364;BME280;34170;54.364;18.582;2023-01-31T05:12:45;99119.28;;;1.04;100.00
48364;BME280;34170;54.364;18.582;2023-01-31T05:15:12;99119.81;;;1.09;100.00
48364;BME280;34170;54.364;18.582;2023-01-31T05:17:40;99118.63;;;1.25;100.00
48364;BME280;34170;54.364;18.582;2023-01-31T05:20:08;99121.47;;;1.10;100.00
48364;BME280;34170;54.364;18.582;2023-01-31T05:22:36;99123.28;;;1.10;100.00
48364;BME280;34170;54.364;18.582;2023-01-31T05:25:03;99140.38;;;1.06;100.00
48364;BME280;34170;54.364;18.582;2023-01-31T05:27:31;99131.66;;;1.04;100.00
48364;BME280;34170;54.364;18.582;2023-01-31T05:29:59;99139.06;;;1.11;100.00
48364;BME280;34170;54.364;18.582;2023-01-31T05:32:27;99130.00;;;1.03;100.00
48364;BME280;34170;54.364;18.582;2023-01-31T05:34:54;99157.88;;;1.20;100.00
48364;BME280;34170;54.364;18.582;2023-01-31T05:37:22;99141.59;;;1.13;100.00
48364;BME280;34170;54.364;18.582;2023-01-31T05:39:49;99164.66;;;1.24;100.00
48364;BME280;34170;54.364;18.582;2023-01-31T05:42:17;99175.91;;;1.14;100.00
48364;BME280;34170;54.364;18.582;2023-01-31T05:44:44;99175.22;;;1.00;100.00
48364;BME280;34170;54.364;18.582;2023-01-31T05:47:12;99182.44;;;0.98;100.00
48364;BME280;34170;54.364;18.582;2023-01-31T05:49:39;99172.66;;;1.11;100.00
48364;BME280;34170;54.364;18.582;2023-01-31T05:52:06;99181.66;;;1.08;100.00
48364;BME280;34170;54.364;18.582;2023-01-31T05:54:34;99180.72;;;0.97;100.00
48364;BME280;34170;54.364;18.582;2023-01-31T05:57:01;99193.97;;;0.97;100.00
48364;BME280;34170;54.364;18.582;2023-01-31T05:59:28;99215.56;;;1.03;100.00
48364;BME280;34170;54.364;18.582;2023-01-31T06:01:58;99208.91;;;0.98;100.00
48364;BME280;34170;54.364;18.582;2023-01-31T06:04:26;99219.13;;;1.15;100.00
48364;BME280;34170;54.364;18.582;2023-01-31T06:06:53;99221.19;;;0.99;100.00
48364;BME280;34170;54.364;18.582;2023-01-31T06:09:20;99231.78;;;0.99;100.00
48364;BME280;34170;54.364;18.582;2023-01-31T06:11:48;99233.25;;;1.03;100.00
48364;BME280;34170;54.364;18.582;2023-01-31T06:14:15;99243.38;;;1.09;100.00
48364;BME280;34170;54.364;18.582;2023-01-31T06:16:43;99238.44;;;1.04;100.00
48364;BME280;34170;54.364;18.582;2023-01-31T06:19:10;99255.47;;;1.00;100.00
48364;BME280;34170;54.364;18.582;2023-01-31T06:21:38;99240.63;;;1.10;100.00
48364;BME280;34170;54.364;18.582;2023-01-31T06:24:05;99266.06;;;1.13;100.00
48364;BME280;34170;54.364;18.582;2023-01-31T06:26:33;99255.84;;;1.20;100.00
48364;BME280;34170;54.364;18.582;2023-01-31T06:29:00;99261.09;;;1.08;100.00
48364;BME280;34170;54.364;18.582;2023-01-31T06:31:28;99273.19;;;1.00;100.00
48364;BME280;34170;54.364;18.582;2023-01-31T06:33:56;99278.16;;;1.04;100.00
48364;BME280;34170;54.364;18.582;2023-01-31T06:36:23;99280.19;;;1.01;100.00
48364;BME280;34170;54.364;18.582;2023-01-31T06:38:51;99292.53;;;1.13;100.00
48364;BME280;34170;54.364;18.582;2023-01-31T06:41:19;99287.31;;;1.24;100.00
48364;BME280;34170;54.364;18.582;2023-01-31T06:43:46;99288.59;;;1.19;100.00
48364;BME280;34170;54.364;18.582;2023-01-31T06:46:14;99294.97;;;1.16;100.00
48364;BME280;34170;54.364;18.582;2023-01-31T06:48:42;99304.44;;;1.07;100.00
48364;BME280;34170;54.364;18.582;2023-01-31T06:51:10;99290.84;;;1.12;100.00
48364;BME280;34170;54.364;18.582;2023-01-31T06:53:37;99306.06;;;1.21;100.00
48364;BME280;34170;54.364;18.582;2023-01-31T06:56:05;99311.88;;;1.26;100.00
48364;BME280;34170;54.364;18.582;2023-01-31T06:58:33;99304.00;;;1.38;100.00
48364;BME280;34170;54.364;18.582;2023-01-31T07:01:08;99304.41;;;1.44;100.00
48364;BME280;34170;54.364;18.582;2023-01-31T07:03:36;99306.22;;;1.44;100.00
48364;BME280;34170;54.364;18.582;2023-01-31T07:06:05;99315.56;;;1.37;100.00
48364;BME280;34170;54.364;18.582;2023-01-31T07:08:32;99313.66;;;1.39;100.00
48364;BME280;34170;54.364;18.582;2023-01-31T07:11:03;99312.78;;;1.51;100.00
48364;BME280;34170;54.364;18.582;2023-01-31T07:13:31;99328.69;;;1.51;100.00
48364;BME280;34170;54.364;18.582;2023-01-31T07:15:58;99332.56;;;1.58;100.00
48364;BME280;34170;54.364;18.582;2023-01-31T07:18:26;99324.91;;;1.66;100.00
48364;BME280;34170;54.364;18.582;2023-01-31T07:20:54;99326.59;;;1.67;100.00
48364;BME280;34170;54.364;18.582;2023-01-31T07:23:21;99330.69;;;1.84;100.00
48364;BME280;34170;54.364;18.582;2023-01-31T07:25:48;99337.88;;;2.06;100.00
48364;BME280;34170;54.364;18.582;2023-01-31T07:28:16;99334.66;;;2.61;100.00
48364;BME280;34170;54.364;18.582;2023-01-31T07:30:44;99329.63;;;3.14;100.00
48364;BME280;34170;54.364;18.582;2023-01-31T07:33:12;99333.97;;;3.49;100.00
48364;BME280;34170;54.364;18.582;2023-01-31T07:35:43;99342.81;;;4.14;100.00
48364;BME280;34170;54.364;18.582;2023-01-31T07:38:10;99328.13;;;4.31;100.00
48364;BME280;34170;54.364;18.582;2023-01-31T07:40:38;99336.91;;;4.11;100.00
48364;BME280;34170;54.364;18.582;2023-01-31T07:43:06;99339.97;;;4.27;100.00
48364;BME280;34170;54.364;18.582;2023-01-31T07:45:34;99346.28;;;4.26;100.00
48364;BME280;34170;54.364;18.582;2023-01-31T07:48:01;99345.78;;;4.95;100.00
48364;BME280;34170;54.364;18.582;2023-01-31T07:50:29;99347.63;;;5.35;100.00
48364;BME280;34170;54.364;18.582;2023-01-31T07:52:57;99343.28;;;5.04;100.00
48364;BME280;34170;54.364;18.582;2023-01-31T07:55:25;99356.13;;;5.70;100.00
48364;BME280;34170;54.364;18.582;2023-01-31T07:57:53;99366.91;;;6.38;92.87
48364;BME280;34170;54.364;18.582;2023-01-31T08:00:20;99353.66;;;6.85;88.76
48364;BME280;34170;54.364;18.582;2023-01-31T08:03:22;99347.66;;;6.54;88.07
48364;BME280;34170;54.364;18.582;2023-01-31T08:06:07;99362.44;;;6.39;89.97
48364;BME280;34170;54.364;18.582;2023-01-31T08:08:36;99371.25;;;6.49;86.10
48364;BME280;34170;54.364;18.582;2023-01-31T08:11:04;99369.03;;;7.58;81.08
48364;BME280;34170;54.364;18.582;2023-01-31T08:13:33;99368.09;;;7.95;80.30
48364;BME280;34170;54.364;18.582;2023-01-31T08:16:02;99375.41;;;8.21;77.50
48364;BME280;34170;54.364;18.582;2023-01-31T08:18:30;99372.56;;;9.03;71.95
48364;BME280;34170;54.364;18.582;2023-01-31T08:20:58;99375.19;;;8.94;71.43
48364;BME280;34170;54.364;18.582;2023-01-31T08:23:26;99358.59;;;6.71;82.03
48364;BME280;34170;54.364;18.582;2023-01-31T08:26:01;99371.00;;;6.33;83.76
48364;BME280;34170;54.364;18.582;2023-01-31T08:28:30;99371.63;;;5.76;86.85
48364;BME280;34170;54.364;18.582;2023-01-31T08:30:58;99379.44;;;6.08;85.80
48364;BME280;34170;54.364;18.582;2023-01-31T08:33:36;99375.13;;;5.36;88.79
48364;BME280;34170;54.364;18.582;2023-01-31T08:38:35;99385.16;;;6.72;83.29
48364;BME280;34170;54.364;18.582;2023-01-31T08:41:03;99389.38;;;8.33;72.78
48364;BME280;34170;54.364;18.582;2023-01-31T08:43:30;99392.94;;;8.69;70.56
48364;BME280;34170;54.364;18.582;2023-01-31T08:46:11;99391.09;;;9.14;64.94
48364;BME280;34170;54.364;18.582;2023-01-31T08:48:39;99377.81;;;9.81;64.63
48364;BME280;34170;54.364;18.582;2023-01-31T08:51:10;99401.56;;;10.02;61.09
48364;BME280;34170;54.364;18.582;2023-01-31T08:53:39;99401.41;;;9.61;63.73
48364;BME280;34170;54.364;18.582;2023-01-31T08:56:08;99408.94;;;8.79;67.48
48364;BME280;34170;54.364;18.582;2023-01-31T08:58:37;99392.94;;;8.69;66.13
48364;BME280;34170;54.364;18.582;2023-01-31T09:01:07;99397.16;;;7.25;73.46
48364;BME280;34170;54.364;18.582;2023-01-31T09:03:35;99406.53;;;7.01;76.19
48364;BME280;34170;54.364;18.582;2023-01-31T09:06:05;99407.38;;;6.92;76.93
48364;BME280;34170;54.364;18.582;2023-01-31T09:08:33;99377.88;;;6.25;81.04
48364;BME280;34170;54.364;18.582;2023-01-31T09:11:01;99383.44;;;5.83;83.67
48364;BME280;34170;54.364;18.582;2023-01-31T09:13:29;99404.59;;;6.64;79.29
48364;BME280;34170;54.364;18.582;2023-01-31T09:16:04;99399.25;;;6.45;78.24
48364;BME280;34170;54.364;18.582;2023-01-31T09:18:36;99419.06;;;6.52;78.77
48364;BME280;34170;54.364;18.582;2023-01-31T09:21:06;99420.31;;;6.28;80.70
48364;BME280;34170;54.364;18.582;2023-01-31T09:23:34;99423.03;;;6.48;78.15
48364;BME280;34170;54.364;18.582;2023-01-31T09:26:02;99421.47;;;6.36;77.88
48364;BME280;34170;54.364;18.582;2023-01-31T09:28:30;99431.19;;;8.26;70.15
48364;BME280;34170;54.364;18.582;2023-01-31T09:31:05;99427.47;;;8.54;67.13
48364;BME280;34170;54.364;18.582;2023-01-31T09:33:34;99435.91;;;7.58;71.18
48364;BME280;34170;54.364;18.582;2023-01-31T09:36:06;99437.72;;;8.77;65.90
48364;BME280;34170;54.364;18.582;2023-01-31T09:38:34;99427.06;;;9.03;64.21
48364;BME280;34170;54.364;18.582;2023-01-31T09:41:36;99441.25;;;9.22;62.54
48364;BME280;34170;54.364;18.582;2023-01-31T09:44:16;99443.03;;;9.65;60.69
48364;BME280;34170;54.364;18.582;2023-01-31T09:49:45;99422.78;;;9.79;59.10
48364;BME280;34170;54.364;18.582;2023-01-31T09:52:15;99427.13;;;9.38;61.60
48364;BME280;34170;54.364;18.582;2023-01-31T09:54:43;99426.72;;;8.16;66.38
48364;BME280;34170;54.364;18.582;2023-01-31T10:02:44;99422.44;;;6.83;72.92
48364;BME280;34170;54.364;18.582;2023-01-31T10:10:36;99426.06;;;6.14;74.51
48364;BME280;34170;54.364;18.582;2023-01-31T10:13:37;99423.53;;;5.72;76.34
48364;BME280;34170;54.364;18.582;2023-01-31T10:16:19;99420.97;;;5.61;76.51
48364;BME280;34170;54.364;18.582;2023-01-31T10:18:51;99432.03;;;5.04;79.78
48364;BME280;34170;54.364;18.582;2023-01-31T10:21:26;99418.88;;;4.82;82.61
48364;BME280;34170;54.364;18.582;2023-01-31T10:24:21;99424.59;;;4.98;81.53
48364;BME280;34170;54.364;18.582;2023-01-31T10:26:50;99427.88;;;5.11;81.25
48364;BME280;34170;54.364;18.582;2023-01-31T10:29:30;99416.91;;;5.05;81.46
48364;BME280;34170;54.364;18.582;2023-01-31T10:34:55;99429.19;;;5.79;77.25
48364;BME280;34170;54.364;18.582;2023-01-31T10:40:12;99416.25;;;5.12;78.67
48364;BME280;34170;54.364;18.582;2023-01-31T10:42:47;99417.84;;;4.94;80.76
48364;BME280;34170;54.364;18.582;2023-01-31T10:45:21;99407.34;;;5.23;78.75
48364;BME280;34170;54.364;18.582;2023-01-31T10:47:56;99416.63;;;5.08;80.95
48364;BME280;34170;54.364;18.582;2023-01-31T10:50:31;99417.16;;;4.81;81.65
48364;BME280;34170;54.364;18.582;2023-01-31T10:58:39;99391.88;;;4.33;83.11
48364;BME280;34170;54.364;18.582;2023-01-31T11:01:08;99392.31;;;4.17;83.64
48364;BME280;34170;54.364;18.582;2023-01-31T11:03:38;99390.84;;;4.13;81.99
48364;BME280;34170;54.364;18.582;2023-01-31T11:06:10;99380.47;;;4.10;82.08
48364;BME280;34170;54.364;18.582;2023-01-31T11:08:45;99390.53;;;4.27;79.90
48364;BME280;34170;54.364;18.582;2023-01-31T11:11:19;99375.00;;;4.11;79.71
48364;BME280;34170;54.364;18.582;2023-01-31T11:14:00;99381.00;;;4.25;78.66
48364;BME280;34170;54.364;18.582;2023-01-31T11:16:34;99351.34;;;3.97;79.87
48364;BME280;34170;54.364;18.582;2023-01-31T11:19:12;99375.88;;;4.00;80.98
48364;BME280;34170;54.364;18.582;2023-01-31T11:21:47;99374.28;;;4.09;81.51
48364;BME280;34170;54.364;18.582;2023-01-31T11:24:19;99369.13;;;4.29;81.55
48364;BME280;34170;54.364;18.582;2023-01-31T11:26:54;99382.56;;;4.27;83.33
48364;BME280;34170;54.364;18.582;2023-01-31T11:29:29;99389.88;;;4.46;84.31
48364;BME280;34170;54.364;18.582;2023-01-31T11:32:01;99376.91;;;4.74;83.85
48364;BME280;34170;54.364;18.582;2023-01-31T11:34:30;99375.91;;;4.75;82.64
48364;BME280;34170;54.364;18.582;2023-01-31T11:37:05;99372.31;;;5.07;82.15
48364;BME280;34170;54.364;18.582;2023-01-31T11:39:35;99372.78;;;5.12;82.56
48364;BME280;34170;54.364;18.582;2023-01-31T11:42:09;99359.16;;;5.15;81.65
48364;BME280;34170;54.364;18.582;2023-01-31T11:47:45;99347.06;;;4.80;81.96
48364;BME280;34170;54.364;18.582;2023-01-31T11:50:44;99356.56;;;4.52;82.68
48364;BME280;34170;54.364;18.582;2023-01-31T11:55:47;99352.38;;;4.38;81.33
48364;BME280;34170;54.364;18.582;2023-01-31T11:58:21;99337.66;;;4.55;81.97
48364;BME280;34170;54.364;18.582;2023-01-31T12:01:25;99341.03;;;4.36;82.22
48364;BME280;34170;54.364;18.582;2023-01-31T12:03:59;99331.84;;;4.08;82.46
48364;BME280;34170;54.364;18.582;2023-01-31T12:06:31;99341.81;;;4.27;82.57
48364;BME280;34170;54.364;18.582;2023-01-31T12:09:02;99335.72;;;4.36;82.18
48364;BME280;34170;54.364;18.582;2023-01-31T12:11:32;99328.63;;;4.46;80.93
48364;BME280;34170;54.364;18.582;2023-01-31T12:16:34;99319.16;;;4.53;79.80
48364;BME280;34170;54.364;18.582;2023-01-31T12:21:51;99327.28;;;4.52;78.22
48364;BME280;34170;54.364;18.582;2023-01-31T12:26:52;99328.03;;;4.22;79.10
48364;BME280;34170;54.364;18.582;2023-01-31T12:30:02;99317.00;;;4.26;77.96
48364;BME280;34170;54.364;18.582;2023-01-31T12:41:27;99316.97;;;4.05;80.27
48364;BME280;34170;54.364;18.582;2023-01-31T12:46:52;99297.22;;;4.19;81.22
48364;BME280;34170;54.364;18.582;2023-01-31T12:55:32;99295.91;;;4.34;80.38
48364;BME280;34170;54.364;18.582;2023-01-31T13:00:57;99299.09;;;4.49;80.65
48364;BME280;34170;54.364;18.582;2023-01-31T13:06:37;99270.41;;;4.32;83.35
48364;BME280;34170;54.364;18.582;2023-01-31T13:09:22;99280.00;;;4.23;87.37
48364;BME280;34170;54.364;18.582;2023-01-31T13:12:00;99271.91;;;4.25;89.36
48364;BME280;34170;54.364;18.582;2023-01-31T13:14:36;99258.97;;;4.20;90.35
48364;BME280;34170;54.364;18.582;2023-01-31T13:17:11;99250.25;;;3.97;92.39
48364;BME280;34170;54.364;18.582;2023-01-31T13:19:50;99252.75;;;4.10;93.04
48364;BME280;34170;54.364;18.582;2023-01-31T13:22:32;99250.81;;;4.12;93.41
48364;BME280;34170;54.364;18.582;2023-01-31T13:28:01;99242.84;;;4.00;91.49
48364;BME280;34170;54.364;18.582;2023-01-31T13:33:30;99233.38;;;4.08;91.69
48364;BME280;34170;54.364;18.582;2023-01-31T13:38:37;99232.44;;;4.09;91.16
48364;BME280;34170;54.364;18.582;2023-01-31T13:41:12;99241.50;;;4.27;89.25
48364;BME280;34170;54.364;18.582;2023-01-31T13:43:43;99237.78;;;4.39;88.43
48364;BME280;34170;54.364;18.582;2023-01-31T13:46:12;99243.41;;;4.36;90.18
48364;BME280;34170;54.364;18.582;2023-01-31T13:48:55;99228.78;;;4.31;92.12
48364;BME280;34170;54.364;18.582;2023-01-31T13:51:35;99238.59;;;4.30;94.10
48364;BME280;34170;54.364;18.582;2023-01-31T13:54:17;99234.56;;;4.36;96.43
48364;BME280;34170;54.364;18.582;2023-01-31T13:56:53;99226.19;;;4.41;96.82
48364;BME280;34170;54.364;18.582;2023-01-31T13:59:24;99222.81;;;4.38;98.10
48364;BME280;34170;54.364;18.582;2023-01-31T14:01:54;99234.22;;;4.50;99.17
48364;BME280;34170;54.364;18.582;2023-01-31T14:04:26;99231.97;;;4.46;99.53
48364;BME280;34170;54.364;18.582;2023-01-31T14:09:30;99234.75;;;4.44;100.00
48364;BME280;34170;54.364;18.582;2023-01-31T14:19:59;99226.97;;;4.10;100.00
48364;BME280;34170;54.364;18.582;2023-01-31T14:22:32;99227.47;;;4.04;100.00
48364;BME280;34170;54.364;18.582;2023-01-31T14:25:04;99213.81;;;4.09;100.00
48364;BME280;34170;54.364;18.582;2023-01-31T14:27:35;99225.22;;;3.99;100.00
48364;BME280;34170;54.364;18.582;2023-01-31T14:32:41;99206.16;;;3.94;100.00
48364;BME280;34170;54.364;18.582;2023-01-31T14:40:33;99200.91;;;3.83;100.00
48364;BME280;34170;54.364;18.582;2023-01-31T14:57:27;99179.34;;;3.65;100.00
48364;BME280;34170;54.364;18.582;2023-01-31T15:00:17;99182.38;;;3.60;100.00
48364;BME280;34170;54.364;18.582;2023-01-31T15:05:24;99174.19;;;3.52;100.00
48364;BME280;34170;54.364;18.582;2023-01-31T15:08:05;99173.75;;;3.47;100.00
48364;BME280;34170;54.364;18.582;2023-01-31T15:10:59;99179.69;;;3.39;100.00
48364;BME280;34170;54.364;18.582;2023-01-31T15:13:48;99179.78;;;3.49;100.00
48364;BME280;34170;54.364;18.582;2023-01-31T15:16:19;99158.94;;;3.33;100.00
48364;BME280;34170;54.364;18.582;2023-01-31T15:21:31;99146.88;;;3.29;100.00
48364;BME280;34170;54.364;18.582;2023-01-31T15:24:00;99169.47;;;3.23;100.00
48364;BME280;34170;54.364;18.582;2023-01-31T15:26:30;99163.66;;;3.30;100.00
48364;BME280;34170;54.364;18.582;2023-01-31T15:29:01;99154.50;;;3.22;100.00
48364;BME280;34170;54.364;18.582;2023-01-31T15:31:42;99143.03;;;3.22;100.00
48364;BME280;34170;54.364;18.582;2023-01-31T15:34:15;99132.53;;;3.20;100.00
48364;BME280;34170;54.364;18.582;2023-01-31T15:37:04;99123.75;;;3.09;100.00
48364;BME280;34170;54.364;18.582;2023-01-31T15:39:56;99124.59;;;3.09;100.00
48364;BME280;34170;54.364;18.582;2023-01-31T15:42:30;99131.84;;;3.07;100.00
48364;BME280;34170;54.364;18.582;2023-01-31T15:45:13;99124.88;;;3.06;100.00